sensor_id;sensor_type;location;lat;lon;timestamp;P1;durP1;ratioP1;P2;durP2;ratioP2
21777;SDS011;11050;52.222;20.916;2024-03-17T00:01:20;10.60;;;2.17;;
21777;SDS011;11050;52.222;20.916;2024-03-17T00:03:45;9.03;;;2.13;;
21777;SDS011;11050;52.222;20.916;2024-03-17T00:06:11;9.23;;;2.30;;
21777;SDS011;11050;52.222;20.916;2024-03-17T00:08:37;7.50;;;2.10;;
21777;SDS011;11050;52.222;20.916;2024-03-17T00:11:03;11.37;;;2.17;;
21777;SDS011;11050;52.222;20.916;2024-03-17T00:13:28;5.47;;;1.50;;
21777;SDS011;11050;52.222;20.916;2024-03-17T00:15:54;11.23;;;1.77;;
21777;SDS011;11050;52.222;20.916;2024-03-17T00:18:20;11.77;;;2.30;;
21777;SDS011;11050;52.222;20.916;2024-03-17T00:20:45;7.53;;;2.20;;
21777;SDS011;11050;52.222;20.916;2024-03-17T00:23:11;5.17;;;1.80;;
21777;SDS011;11050;52.222;20.916;2024-03-17T00:25:37;10.83;;;2.47;;
21777;SDS011;11050;52.222;20.916;2024-03-17T00:28:04;7.67;;;1.90;;
21777;SDS011;11050;52.222;20.916;2024-03-17T00:30:29;7.80;;;1.73;;
21777;SDS011;11050;52.222;20.916;2024-03-17T00:32:56;8.70;;;2.53;;
21777;SDS011;11050;52.222;20.916;2024-03-17T00:35:25;12.40;;;2.43;;
21777;SDS011;11050;52.222;20.916;2024-03-17T00:37:51;6.70;;;1.70;;
21777;SDS011;11050;52.222;20.916;2024-03-17T00:40:18;10.13;;;2.23;;
21777;SDS011;11050;52.222;20.916;2024-03-17T00:42:44;9.77;;;2.30;;
21777;SDS011;11050;52.222;20.916;2024-03-17T00:45:11;8.93;;;1.87;;
21777;SDS011;11050;52.222;20.916;2024-03-17T00:47:37;4.53;;;1.40;;
21777;SDS011;11050;52.222;20.916;2024-03-17T00:50:04;10.73;;;2.50;;
21777;SDS011;11050;52.222;20.916;2024-03-17T00:52:36;8.90;;;1.93;;
21777;SDS011;11050;52.222;20.916;2024-03-17T00:55:02;8.50;;;1.30;;
21777;SDS011;11050;52.222;20.916;2024-03-17T00:57:28;7.90;;;1.80;;
21777;SDS011;11050;52.222;20.916;2024-03-17T00:59:54;7.70;;;1.53;;
21777;SDS011;11050;52.222;20.916;2024-03-17T01:02:20;9.97;;;2.23;;
21777;SDS011;11050;52.222;20.916;2024-03-17T01:04:46;12.43;;;2.23;;
21777;SDS011;11050;52.222;20.916;2024-03-17T01:07:12;5.03;;;1.40;;
21777;SDS011;11050;52.222;20.916;2024-03-17T01:09:38;13.23;;;2.67;;
21777;SDS011;11050;52.222;20.916;2024-03-17T01:12:04;6.13;;;1.97;;
21777;SDS011;11050;52.222;20.916;2024-03-17T01:14:31;7.23;;;1.77;;
21777;SDS011;11050;52.222;20.916;2024-03-17T01:16:58;11.20;;;2.07;;
21777;SDS011;11050;52.222;20.916;2024-03-17T01:19:25;13.67;;;2.10;;
21777;SDS011;11050;52.222;20.916;2024-03-17T01:21:51;9.27;;;2.00;;
21777;SDS011;11050;52.222;20.916;2024-03-17T01:24:17;6.30;;;1.77;;
21777;SDS011;11050;52.222;20.916;2024-03-17T01:26:43;10.73;;;1.90;;
21777;SDS011;11050;52.222;20.916;2024-03-17T01:29:10;11.30;;;1.63;;
21777;SDS011;11050;52.222;20.916;2024-03-17T01:31:36;13.23;;;2.27;;
21777;SDS011;11050;52.222;20.916;2024-03-17T01:34:01;9.73;;;1.90;;
21777;SDS011;11050;52.222;20.916;2024-03-17T01:36:27;14.27;;;2.23;;
21777;SDS011;11050;52.222;20.916;2024-03-17T01:38:54;12.60;;;1.80;;
21777;SDS011;11050;52.222;20.916;2024-03-17T01:41:19;14.87;;;1.90;;
21777;SDS011;11050;52.222;20.916;2024-03-17T01:43:45;7.80;;;2.10;;
21777;SDS011;11050;52.222;20.916;2024-03-17T01:46:12;9.43;;;2.40;;
21777;SDS011;11050;52.222;20.916;2024-03-17T01:48:42;9.60;;;1.73;;
21777;SDS011;11050;52.222;20.916;2024-03-17T01:51:08;10.17;;;2.03;;
21777;SDS011;11050;52.222;20.916;2024-03-17T01:53:37;17.73;;;2.10;;
21777;SDS011;11050;52.222;20.916;2024-03-17T01:56:04;12.80;;;2.00;;
21777;SDS011;11050;52.222;20.916;2024-03-17T01:58:33;7.23;;;1.87;;
21777;SDS011;11050;52.222;20.916;2024-03-17T02:00:59;12.43;;;2.33;;
21777;SDS011;11050;52.222;20.916;2024-03-17T02:03:26;7.37;;;1.97;;
21777;SDS011;11050;52.222;20.916;2024-03-17T02:05:52;13.60;;;2.70;;
21777;SDS011;11050;52.222;20.916;2024-03-17T02:08:17;14.13;;;2.37;;
21777;SDS011;11050;52.222;20.916;2024-03-17T02:10:44;9.83;;;2.00;;
21777;SDS011;11050;52.222;20.916;2024-03-17T02:13:09;11.00;;;1.90;;
21777;SDS011;11050;52.222;20.916;2024-03-17T02:15:35;12.47;;;2.07;;
21777;SDS011;11050;52.222;20.916;2024-03-17T02:18:01;9.80;;;2.03;;
21777;SDS011;11050;52.222;20.916;2024-03-17T02:20:27;9.07;;;2.23;;
21777;SDS011;11050;52.222;20.916;2024-03-17T02:23:12;11.03;;;2.60;;
21777;SDS011;11050;52.222;20.916;2024-03-17T02:25:37;9.77;;;2.40;;
21777;SDS011;11050;52.222;20.916;2024-03-17T02:28:04;14.07;;;1.70;;
21777;SDS011;11050;52.222;20.916;2024-03-17T02:30:29;6.73;;;1.70;;
21777;SDS011;11050;52.222;20.916;2024-03-17T02:32:55;7.53;;;2.00;;
21777;SDS011;11050;52.222;20.916;2024-03-17T02:35:22;10.43;;;2.33;;
21777;SDS011;11050;52.222;20.916;2024-03-17T02:37:49;10.47;;;1.97;;
21777;SDS011;11050;52.222;20.916;2024-03-17T02:40:15;11.07;;;2.23;;
21777;SDS011;11050;52.222;20.916;2024-03-17T02:42:41;10.93;;;2.13;;
21777;SDS011;11050;52.222;20.916;2024-03-17T02:45:09;15.87;;;2.63;;
21777;SDS011;11050;52.222;20.916;2024-03-17T02:47:39;9.57;;;2.47;;
21777;SDS011;11050;52.222;20.916;2024-03-17T02:50:06;12.63;;;2.43;;
21777;SDS011;11050;52.222;20.916;2024-03-17T02:52:33;11.70;;;1.93;;
21777;SDS011;11050;52.222;20.916;2024-03-17T02:54:59;6.60;;;2.03;;
21777;SDS011;11050;52.222;20.916;2024-03-17T02:57:25;11.90;;;2.00;;
21777;SDS011;11050;52.222;20.916;2024-03-17T02:59:55;10.17;;;2.37;;
21777;SDS011;11050;52.222;20.916;2024-03-17T03:02:24;10.87;;;1.93;;
21777;SDS011;11050;52.222;20.916;2024-03-17T03:04:50;8.60;;;1.97;;
21777;SDS011;11050;52.222;20.916;2024-03-17T03:07:16;6.27;;;2.20;;
21777;SDS011;11050;52.222;20.916;2024-03-17T03:09:41;12.00;;;3.10;;
21777;SDS011;11050;52.222;20.916;2024-03-17T03:12:07;13.40;;;2.43;;
21777;SDS011;11050;52.222;20.916;2024-03-17T03:14:33;8.70;;;2.47;;
21777;SDS011;11050;52.222;20.916;2024-03-17T03:16:59;13.57;;;2.27;;
21777;SDS011;11050;52.222;20.916;2024-03-17T03:19:25;16.77;;;2.63;;
21777;SDS011;11050;52.222;20.916;2024-03-17T03:21:52;9.87;;;2.30;;
21777;SDS011;11050;52.222;20.916;2024-03-17T03:24:18;18.37;;;2.37;;
21777;SDS011;11050;52.222;20.916;2024-03-17T03:26:43;16.67;;;2.80;;
21777;SDS011;11050;52.222;20.916;2024-03-17T03:29:10;10.27;;;2.23;;
21777;SDS011;11050;52.222;20.916;2024-03-17T03:31:36;11.53;;;2.13;;
21777;SDS011;11050;52.222;20.916;2024-03-17T03:34:05;13.50;;;2.57;;
21777;SDS011;11050;52.222;20.916;2024-03-17T03:36:33;11.70;;;2.70;;
21777;SDS011;11050;52.222;20.916;2024-03-17T03:39:01;10.73;;;2.60;;
21777;SDS011;11050;52.222;20.916;2024-03-17T03:41:31;14.17;;;2.63;;
21777;SDS011;11050;52.222;20.916;2024-03-17T03:43:57;17.93;;;3.70;;
21777;SDS011;11050;52.222;20.916;2024-03-17T03:46:23;16.93;;;3.13;;
21777;SDS011;11050;52.222;20.916;2024-03-17T03:48:50;12.20;;;3.17;;
21777;SDS011;11050;52.222;20.916;2024-03-17T03:51:16;9.93;;;2.90;;
21777;SDS011;11050;52.222;20.916;2024-03-17T03:53:42;13.90;;;2.87;;
21777;SDS011;11050;52.222;20.916;2024-03-17T03:56:07;11.30;;;2.70;;
21777;SDS011;11050;52.222;20.916;2024-03-17T03:58:35;12.43;;;3.03;;
21777;SDS011;11050;52.222;20.916;2024-03-17T04:01:09;13.33;;;2.63;;
21777;SDS011;11050;52.222;20.916;2024-03-17T04:03:40;12.17;;;3.33;;
21777;SDS011;11050;52.222;20.916;2024-03-17T04:06:07;17.23;;;2.73;;
21777;SDS011;11050;52.222;20.916;2024-03-17T04:08:35;14.80;;;3.00;;
21777;SDS011;11050;52.222;20.916;2024-03-17T04:11:06;11.67;;;3.03;;
21777;SDS011;11050;52.222;20.916;2024-03-17T04:13:32;13.80;;;3.40;;
21777;SDS011;11050;52.222;20.916;2024-03-17T04:15:59;7.53;;;2.30;;
21777;SDS011;11050;52.222;20.916;2024-03-17T04:18:28;10.10;;;3.43;;
21777;SDS011;11050;52.222;20.916;2024-03-17T04:21:00;13.20;;;2.50;;
21777;SDS011;11050;52.222;20.916;2024-03-17T04:23:28;10.67;;;2.70;;
21777;SDS011;11050;52.222;20.916;2024-03-17T04:25:57;7.80;;;2.57;;
21777;SDS011;11050;52.222;20.916;2024-03-17T04:28:23;12.37;;;3.03;;
21777;SDS011;11050;52.222;20.916;2024-03-17T04:30:49;13.70;;;2.80;;
21777;SDS011;11050;52.222;20.916;2024-03-17T04:33:14;18.07;;;3.17;;
21777;SDS011;11050;52.222;20.916;2024-03-17T04:35:42;8.13;;;2.50;;
21777;SDS011;11050;52.222;20.916;2024-03-17T04:38:08;13.10;;;2.77;;
21777;SDS011;11050;52.222;20.916;2024-03-17T04:40:35;8.37;;;2.43;;
21777;SDS011;11050;52.222;20.916;2024-03-17T04:43:06;10.47;;;2.60;;
21777;SDS011;11050;52.222;20.916;2024-03-17T04:45:32;8.67;;;2.57;;
21777;SDS011;11050;52.222;20.916;2024-03-17T04:47:58;15.80;;;3.83;;
21777;SDS011;11050;52.222;20.916;2024-03-17T04:50:23;13.20;;;3.37;;
21777;SDS011;11050;52.222;20.916;2024-03-17T04:52:51;10.67;;;2.67;;
21777;SDS011;11050;52.222;20.916;2024-03-17T04:55:17;10.07;;;2.80;;
21777;SDS011;11050;52.222;20.916;2024-03-17T04:57:44;10.00;;;2.57;;
21777;SDS011;11050;52.222;20.916;2024-03-17T05:00:10;10.00;;;3.00;;
21777;SDS011;11050;52.222;20.916;2024-03-17T05:02:38;12.37;;;3.10;;
21777;SDS011;11050;52.222;20.916;2024-03-17T05:05:05;13.83;;;2.93;;
21777;SDS011;11050;52.222;20.916;2024-03-17T05:07:33;13.03;;;3.00;;
21777;SDS011;11050;52.222;20.916;2024-03-17T05:09:59;13.93;;;3.37;;
21777;SDS011;11050;52.222;20.916;2024-03-17T05:12:25;15.43;;;2.87;;
21777;SDS011;11050;52.222;20.916;2024-03-17T05:14:51;7.67;;;2.47;;
21777;SDS011;11050;52.222;20.916;2024-03-17T05:17:16;8.50;;;3.23;;
21777;SDS011;11050;52.222;20.916;2024-03-17T05:19:42;11.63;;;2.90;;
21777;SDS011;11050;52.222;20.916;2024-03-17T05:22:08;12.80;;;3.30;;
21777;SDS011;11050;52.222;20.916;2024-03-17T05:24:34;9.93;;;3.37;;
21777;SDS011;11050;52.222;20.916;2024-03-17T05:26:59;10.97;;;3.07;;
21777;SDS011;11050;52.222;20.916;2024-03-17T05:29:25;10.23;;;3.20;;
21777;SDS011;11050;52.222;20.916;2024-03-17T05:31:51;13.20;;;2.87;;
21777;SDS011;11050;52.222;20.916;2024-03-17T05:34:16;9.23;;;2.93;;
21777;SDS011;11050;52.222;20.916;2024-03-17T05:36:42;9.07;;;3.30;;
21777;SDS011;11050;52.222;20.916;2024-03-17T05:39:08;12.70;;;3.40;;
21777;SDS011;11050;52.222;20.916;2024-03-17T05:41:33;11.97;;;3.33;;
21777;SDS011;11050;52.222;20.916;2024-03-17T05:43:59;12.47;;;3.57;;
21777;SDS011;11050;52.222;20.916;2024-03-17T05:46:28;12.83;;;3.40;;
21777;SDS011;11050;52.222;20.916;2024-03-17T05:48:55;14.57;;;3.70;;
21777;SDS011;11050;52.222;20.916;2024-03-17T05:51:21;12.30;;;4.20;;
21777;SDS011;11050;52.222;20.916;2024-03-17T05:53:47;12.63;;;3.60;;
21777;SDS011;11050;52.222;20.916;2024-03-17T05:56:13;16.93;;;3.73;;
21777;SDS011;11050;52.222;20.916;2024-03-17T05:58:41;8.43;;;2.80;;
21777;SDS011;11050;52.222;20.916;2024-03-17T06:01:07;13.97;;;3.10;;
21777;SDS011;11050;52.222;20.916;2024-03-17T06:03:34;9.47;;;2.97;;
21777;SDS011;11050;52.222;20.916;2024-03-17T06:06:03;11.23;;;2.60;;
21777;SDS011;11050;52.222;20.916;2024-03-17T06:08:32;10.10;;;2.40;;
21777;SDS011;11050;52.222;20.916;2024-03-17T06:10:58;9.30;;;2.67;;
21777;SDS011;11050;52.222;20.916;2024-03-17T06:13:25;10.60;;;2.97;;
21777;SDS011;11050;52.222;20.916;2024-03-17T06:15:51;9.07;;;3.20;;
21777;SDS011;11050;52.222;20.916;2024-03-17T06:18:17;7.17;;;2.60;;
21777;SDS011;11050;52.222;20.916;2024-03-17T06:20:44;14.13;;;3.00;;
21777;SDS011;11050;52.222;20.916;2024-03-17T06:23:11;11.47;;;3.17;;
21777;SDS011;11050;52.222;20.916;2024-03-17T06:25:41;9.73;;;3.20;;
21777;SDS011;11050;52.222;20.916;2024-03-17T06:28:12;10.20;;;3.50;;
21777;SDS011;11050;52.222;20.916;2024-03-17T06:30:40;11.73;;;3.30;;
21777;SDS011;11050;52.222;20.916;2024-03-17T06:33:15;9.93;;;3.27;;
21777;SDS011;11050;52.222;20.916;2024-03-17T06:35:45;5.90;;;2.83;;
21777;SDS011;11050;52.222;20.916;2024-03-17T06:38:14;12.60;;;2.90;;
21777;SDS011;11050;52.222;20.916;2024-03-17T06:40:40;6.37;;;2.17;;
21777;SDS011;11050;52.222;20.916;2024-03-17T06:43:07;9.90;;;2.57;;
21777;SDS011;11050;52.222;20.916;2024-03-17T06:45:35;6.87;;;2.70;;
21777;SDS011;11050;52.222;20.916;2024-03-17T06:48:01;9.40;;;2.90;;
21777;SDS011;11050;52.222;20.916;2024-03-17T06:50:26;13.00;;;2.60;;
21777;SDS011;11050;52.222;20.916;2024-03-17T06:52:52;13.43;;;2.87;;
21777;SDS011;11050;52.222;20.916;2024-03-17T06:55:18;9.80;;;2.43;;
21777;SDS011;11050;52.222;20.916;2024-03-17T06:57:46;4.80;;;1.57;;
21777;SDS011;11050;52.222;20.916;2024-03-17T07:00:12;12.73;;;2.70;;
21777;SDS011;11050;52.222;20.916;2024-03-17T07:02:42;7.10;;;2.43;;
21777;SDS011;11050;52.222;20.916;2024-03-17T07:05:13;13.13;;;2.83;;
21777;SDS011;11050;52.222;20.916;2024-03-17T07:07:39;17.70;;;3.40;;
21777;SDS011;11050;52.222;20.916;2024-03-17T07:10:09;7.33;;;2.53;;
21777;SDS011;11050;52.222;20.916;2024-03-17T07:12:39;8.93;;;2.17;;
21777;SDS011;11050;52.222;20.916;2024-03-17T07:15:05;9.77;;;2.23;;
21777;SDS011;11050;52.222;20.916;2024-03-17T07:17:33;6.93;;;1.60;;
21777;SDS011;11050;52.222;20.916;2024-03-17T07:19:59;10.03;;;1.93;;
21777;SDS011;11050;52.222;20.916;2024-03-17T07:22:26;10.67;;;2.50;;
21777;SDS011;11050;52.222;20.916;2024-03-17T07:24:53;7.13;;;2.27;;
21777;SDS011;11050;52.222;20.916;2024-03-17T07:27:25;8.17;;;2.33;;
21777;SDS011;11050;52.222;20.916;2024-03-17T07:29:52;11.57;;;2.57;;
21777;SDS011;11050;52.222;20.916;2024-03-17T07:32:18;7.73;;;2.03;;
21777;SDS011;11050;52.222;20.916;2024-03-17T07:34:43;6.97;;;1.93;;
21777;SDS011;11050;52.222;20.916;2024-03-17T07:37:09;12.97;;;2.97;;
21777;SDS011;11050;52.222;20.916;2024-03-17T07:39:35;9.37;;;2.83;;
21777;SDS011;11050;52.222;20.916;2024-03-17T07:42:01;5.90;;;1.43;;
21777;SDS011;11050;52.222;20.916;2024-03-17T07:44:30;9.17;;;2.20;;
21777;SDS011;11050;52.222;20.916;2024-03-17T07:46:59;6.37;;;2.57;;
21777;SDS011;11050;52.222;20.916;2024-03-17T07:49:26;9.07;;;3.03;;
21777;SDS011;11050;52.222;20.916;2024-03-17T07:51:52;9.60;;;3.20;;
21777;SDS011;11050;52.222;20.916;2024-03-17T07:54:17;12.10;;;2.57;;
21777;SDS011;11050;52.222;20.916;2024-03-17T07:56:44;10.17;;;3.50;;
21777;SDS011;11050;52.222;20.916;2024-03-17T07:59:11;9.17;;;2.70;;
21777;SDS011;11050;52.222;20.916;2024-03-17T08:01:41;8.17;;;2.43;;
21777;SDS011;11050;52.222;20.916;2024-03-17T08:04:07;8.10;;;2.40;;
21777;SDS011;11050;52.222;20.916;2024-03-17T08:06:32;9.57;;;2.70;;
21777;SDS011;11050;52.222;20.916;2024-03-17T08:08:58;10.80;;;3.33;;
21777;SDS011;11050;52.222;20.916;2024-03-17T08:11:24;5.47;;;2.23;;
21777;SDS011;11050;52.222;20.916;2024-03-17T08:13:49;6.93;;;2.70;;
21777;SDS011;11050;52.222;20.916;2024-03-17T08:16:15;13.70;;;2.90;;
21777;SDS011;11050;52.222;20.916;2024-03-17T08:18:42;12.10;;;3.30;;
21777;SDS011;11050;52.222;20.916;2024-03-17T08:21:08;10.67;;;3.07;;
21777;SDS011;11050;52.222;20.916;2024-03-17T08:23:34;11.40;;;3.37;;
21777;SDS011;11050;52.222;20.916;2024-03-17T08:26:04;8.83;;;2.77;;
21777;SDS011;11050;52.222;20.916;2024-03-17T08:28:30;8.20;;;2.50;;
21777;SDS011;11050;52.222;20.916;2024-03-17T08:31:02;4.63;;;1.60;;
21777;SDS011;11050;52.222;20.916;2024-03-17T08:33:29;7.67;;;2.13;;
21777;SDS011;11050;52.222;20.916;2024-03-17T08:36:01;8.30;;;2.70;;
21777;SDS011;11050;52.222;20.916;2024-03-17T08:38:30;9.03;;;3.07;;
21777;SDS011;11050;52.222;20.916;2024-03-17T08:40:57;9.77;;;3.20;;
21777;SDS011;11050;52.222;20.916;2024-03-17T08:43:38;6.53;;;2.33;;
21777;SDS011;11050;52.222;20.916;2024-03-17T08:46:05;7.60;;;2.37;;
21777;SDS011;11050;52.222;20.916;2024-03-17T08:48:37;10.80;;;3.43;;
21777;SDS011;11050;52.222;20.916;2024-03-17T08:51:04;9.10;;;3.13;;
21777;SDS011;11050;52.222;20.916;2024-03-17T08:53:32;7.53;;;2.47;;
21777;SDS011;11050;52.222;20.916;2024-03-17T08:55:58;12.53;;;2.97;;
21777;SDS011;11050;52.222;20.916;2024-03-17T08:58:25;8.97;;;2.90;;
21777;SDS011;11050;52.222;20.916;2024-03-17T09:00:52;13.00;;;3.53;;
21777;SDS011;11050;52.222;20.916;2024-03-17T09:03:18;8.77;;;2.80;;
21777;SDS011;11050;52.222;20.916;2024-03-17T09:05:45;8.23;;;3.93;;
21777;SDS011;11050;52.222;20.916;2024-03-17T09:08:16;7.37;;;2.90;;
21777;SDS011;11050;52.222;20.916;2024-03-17T09:10:45;7.57;;;3.10;;
21777;SDS011;11050;52.222;20.916;2024-03-17T09:13:13;10.37;;;3.07;;
21777;SDS011;11050;52.222;20.916;2024-03-17T09:15:49;5.63;;;2.30;;
21777;SDS011;11050;52.222;20.916;2024-03-17T09:18:20;8.93;;;3.00;;
21777;SDS011;11050;52.222;20.916;2024-03-17T09:20:46;7.47;;;2.13;;
21777;SDS011;11050;52.222;20.916;2024-03-17T09:23:19;5.07;;;2.30;;
21777;SDS011;11050;52.222;20.916;2024-03-17T09:25:54;5.40;;;2.13;;
21777;SDS011;11050;52.222;20.916;2024-03-17T09:28:24;5.57;;;2.47;;
21777;SDS011;11050;52.222;20.916;2024-03-17T09:30:50;6.10;;;1.87;;
21777;SDS011;11050;52.222;20.916;2024-03-17T09:33:17;5.43;;;1.87;;
21777;SDS011;11050;52.222;20.916;2024-03-17T09:35:54;2.73;;;1.57;;
21777;SDS011;11050;52.222;20.916;2024-03-17T09:38:25;6.27;;;2.67;;
21777;SDS011;11050;52.222;20.916;2024-03-17T09:40:52;8.77;;;3.50;;
21777;SDS011;11050;52.222;20.916;2024-03-17T09:43:20;10.90;;;4.13;;
21777;SDS011;11050;52.222;20.916;2024-03-17T09:45:47;8.37;;;3.63;;
21777;SDS011;11050;52.222;20.916;2024-03-17T09:48:14;7.03;;;3.20;;
21777;SDS011;11050;52.222;20.916;2024-03-17T09:50:46;8.10;;;2.67;;
21777;SDS011;11050;52.222;20.916;2024-03-17T09:53:17;5.37;;;2.83;;
21777;SDS011;11050;52.222;20.916;2024-03-17T09:55:57;7.43;;;3.03;;
21777;SDS011;11050;52.222;20.916;2024-03-17T09:58:24;5.93;;;2.57;;
21777;SDS011;11050;52.222;20.916;2024-03-17T10:00:50;4.10;;;1.83;;
21777;SDS011;11050;52.222;20.916;2024-03-17T10:06:07;7.10;;;2.80;;
21777;SDS011;11050;52.222;20.916;2024-03-17T10:08:41;6.80;;;2.43;;
21777;SDS011;11050;52.222;20.916;2024-03-17T10:11:17;5.80;;;2.57;;
21777;SDS011;11050;52.222;20.916;2024-03-17T10:13:44;5.27;;;2.17;;
21777;SDS011;11050;52.222;20.916;2024-03-17T10:16:22;11.23;;;3.77;;
21777;SDS011;11050;52.222;20.916;2024-03-17T10:18:51;4.70;;;1.80;;
21777;SDS011;11050;52.222;20.916;2024-03-17T10:21:47;6.93;;;2.90;;
21777;SDS011;11050;52.222;20.916;2024-03-17T10:24:18;5.47;;;2.70;;
21777;SDS011;11050;52.222;20.916;2024-03-17T10:26:50;6.57;;;2.27;;
21777;SDS011;11050;52.222;20.916;2024-03-17T10:29:25;11.33;;;4.67;;
21777;SDS011;11050;52.222;20.916;2024-03-17T10:31:56;6.03;;;2.67;;
21777;SDS011;11050;52.222;20.916;2024-03-17T10:34:38;5.73;;;2.83;;
21777;SDS011;11050;52.222;20.916;2024-03-17T10:39:42;6.77;;;2.23;;
21777;SDS011;11050;52.222;20.916;2024-03-17T10:42:09;3.77;;;2.60;;
21777;SDS011;11050;52.222;20.916;2024-03-17T10:44:39;7.37;;;3.23;;
21777;SDS011;11050;52.222;20.916;2024-03-17T10:47:07;5.60;;;2.50;;
21777;SDS011;11050;52.222;20.916;2024-03-17T10:49:52;5.63;;;2.53;;
21777;SDS011;11050;52.222;20.916;2024-03-17T10:52:20;2.40;;;1.80;;
21777;SDS011;11050;52.222;20.916;2024-03-17T10:54:51;3.37;;;1.93;;
21777;SDS011;11050;52.222;20.916;2024-03-17T11:00:00;8.93;;;3.87;;
21777;SDS011;11050;52.222;20.916;2024-03-17T11:02:33;6.03;;;3.53;;
21777;SDS011;11050;52.222;20.916;2024-03-17T11:07:47;9.53;;;2.83;;
21777;SDS011;11050;52.222;20.916;2024-03-17T11:12:59;6.07;;;2.73;;
21777;SDS011;11050;52.222;20.916;2024-03-17T11:20:33;5.97;;;2.73;;
21777;SDS011;11050;52.222;20.916;2024-03-17T11:23:04;3.50;;;2.50;;
21777;SDS011;11050;52.222;20.916;2024-03-17T11:27:59;5.93;;;2.83;;
21777;SDS011;11050;52.222;20.916;2024-03-17T11:38:59;2.37;;;1.00;;
21777;SDS011;11050;52.222;20.916;2024-03-17T11:41:46;1.53;;;1.00;;
21777;SDS011;11050;52.222;20.916;2024-03-17T11:44:14;2.63;;;1.03;;
21777;SDS011;11050;52.222;20.916;2024-03-17T11:46:44;2.07;;;1.43;;
21777;SDS011;11050;52.222;20.916;2024-03-17T11:49:22;1.60;;;1.20;;
21777;SDS011;11050;52.222;20.916;2024-03-17T11:52:12;1.73;;;1.50;;
21777;SDS011;11050;52.222;20.916;2024-03-17T11:54:40;2.87;;;1.63;;
21777;SDS011;11050;52.222;20.916;2024-03-17T11:59:40;1.93;;;1.10;;
21777;SDS011;11050;52.222;20.916;2024-03-17T12:04:46;1.23;;;1.00;;
21777;SDS011;11050;52.222;20.916;2024-03-17T12:07:16;1.70;;;1.37;;
21777;SDS011;11050;52.222;20.916;2024-03-17T12:09:47;1.73;;;1.50;;
21777;SDS011;11050;52.222;20.916;2024-03-17T12:14:47;2.40;;;1.50;;
21777;SDS011;11050;52.222;20.916;2024-03-17T12:17:15;4.67;;;2.07;;
21777;SDS011;11050;52.222;20.916;2024-03-17T12:19:47;3.70;;;1.70;;
21777;SDS011;11050;52.222;20.916;2024-03-17T12:22:17;2.23;;;1.57;;
21777;SDS011;11050;52.222;20.916;2024-03-17T12:24:49;2.40;;;1.43;;
21777;SDS011;11050;52.222;20.916;2024-03-17T12:27:23;4.13;;;1.53;;
21777;SDS011;11050;52.222;20.916;2024-03-17T12:29:51;5.67;;;2.90;;
21777;SDS011;11050;52.222;20.916;2024-03-17T12:32:19;3.07;;;1.80;;
21777;SDS011;11050;52.222;20.916;2024-03-17T12:34:55;2.97;;;1.70;;
21777;SDS011;11050;52.222;20.916;2024-03-17T12:37:25;5.97;;;2.70;;
21777;SDS011;11050;52.222;20.916;2024-03-17T12:39:59;3.80;;;1.83;;
21777;SDS011;11050;52.222;20.916;2024-03-17T12:42:26;2.57;;;1.50;;
21777;SDS011;11050;52.222;20.916;2024-03-17T12:44:53;2.30;;;1.50;;
21777;SDS011;11050;52.222;20.916;2024-03-17T12:47:22;4.63;;;1.90;;
21777;SDS011;11050;52.222;20.916;2024-03-17T12:49:51;7.50;;;2.10;;
21777;SDS011;11050;52.222;20.916;2024-03-17T12:52:22;3.70;;;1.67;;
21777;SDS011;11050;52.222;20.916;2024-03-17T12:55:05;3.30;;;1.90;;
21777;SDS011;11050;52.222;20.916;2024-03-17T12:57:52;4.07;;;1.60;;
21777;SDS011;11050;52.222;20.916;2024-03-17T13:01:00;3.17;;;1.53;;
21777;SDS011;11050;52.222;20.916;2024-03-17T13:03:34;4.47;;;1.87;;
21777;SDS011;11050;52.222;20.916;2024-03-17T13:06:02;2.27;;;1.53;;
21777;SDS011;11050;52.222;20.916;2024-03-17T13:08:33;3.03;;;1.60;;
21777;SDS011;11050;52.222;20.916;2024-03-17T13:10:59;2.67;;;1.50;;
21777;SDS011;11050;52.222;20.916;2024-03-17T13:13:25;2.27;;;1.80;;
21777;SDS011;11050;52.222;20.916;2024-03-17T13:15:51;3.63;;;1.53;;
21777;SDS011;11050;52.222;20.916;2024-03-17T13:18:18;2.10;;;1.50;;
21777;SDS011;11050;52.222;20.916;2024-03-17T13:20:45;1.70;;;1.57;;
21777;SDS011;11050;52.222;20.916;2024-03-17T13:23:14;2.30;;;1.40;;
21777;SDS011;11050;52.222;20.916;2024-03-17T13:25:40;1.57;;;1.40;;
21777;SDS011;11050;52.222;20.916;2024-03-17T13:28:08;2.47;;;1.93;;
21777;SDS011;11050;52.222;20.916;2024-03-17T13:30:35;5.00;;;2.33;;
21777;SDS011;11050;52.222;20.916;2024-03-17T13:33:05;4.93;;;2.67;;
21777;SDS011;11050;52.222;20.916;2024-03-17T13:35:34;3.00;;;1.80;;
21777;SDS011;11050;52.222;20.916;2024-03-17T13:38:04;2.40;;;1.40;;
21777;SDS011;11050;52.222;20.916;2024-03-17T13:40:34;2.67;;;1.90;;
21777;SDS011;11050;52.222;20.916;2024-03-17T13:43:01;4.37;;;1.50;;
21777;SDS011;11050;52.222;20.916;2024-03-17T13:45:28;3.87;;;1.80;;
21777;SDS011;11050;52.222;20.916;2024-03-17T13:48:03;3.03;;;1.80;;
21777;SDS011;11050;52.222;20.916;2024-03-17T13:50:30;3.77;;;1.60;;
21777;SDS011;11050;52.222;20.916;2024-03-17T13:52:56;3.20;;;1.73;;
21777;SDS011;11050;52.222;20.916;2024-03-17T13:55:23;3.83;;;2.10;;
21777;SDS011;11050;52.222;20.916;2024-03-17T13:57:51;2.03;;;1.30;;
21777;SDS011;11050;52.222;20.916;2024-03-17T14:00:19;2.10;;;1.30;;
21777;SDS011;11050;52.222;20.916;2024-03-17T14:02:47;2.67;;;1.70;;
21777;SDS011;11050;52.222;20.916;2024-03-17T14:05:17;2.60;;;1.37;;
21777;SDS011;11050;52.222;20.916;2024-03-17T14:07:46;1.13;;;1.03;;
21777;SDS011;11050;52.222;20.916;2024-03-17T14:10:14;2.87;;;1.80;;
21777;SDS011;11050;52.222;20.916;2024-03-17T14:12:44;3.43;;;1.53;;
21777;SDS011;11050;52.222;20.916;2024-03-17T14:15:11;3.00;;;1.57;;
21777;SDS011;11050;52.222;20.916;2024-03-17T14:17:39;3.37;;;1.70;;
21777;SDS011;11050;52.222;20.916;2024-03-17T14:20:07;4.23;;;2.20;;
21777;SDS011;11050;52.222;20.916;2024-03-17T14:22:36;3.47;;;1.83;;
21777;SDS011;11050;52.222;20.916;2024-03-17T14:25:06;3.57;;;1.80;;
21777;SDS011;11050;52.222;20.916;2024-03-17T14:27:35;2.53;;;1.87;;
21777;SDS011;11050;52.222;20.916;2024-03-17T14:30:02;2.47;;;1.93;;
21777;SDS011;11050;52.222;20.916;2024-03-17T14:32:29;3.90;;;2.13;;
21777;SDS011;11050;52.222;20.916;2024-03-17T14:34:55;2.50;;;2.03;;
21777;SDS011;11050;52.222;20.916;2024-03-17T14:37:21;3.03;;;2.17;;
21777;SDS011;11050;52.222;20.916;2024-03-17T14:39:47;3.37;;;2.20;;
21777;SDS011;11050;52.222;20.916;2024-03-17T14:42:17;5.57;;;2.47;;
21777;SDS011;11050;52.222;20.916;2024-03-17T14:44:44;2.70;;;1.80;;
21777;SDS011;11050;52.222;20.916;2024-03-17T14:47:12;2.40;;;1.73;;
21777;SDS011;11050;52.222;20.916;2024-03-17T14:49:38;3.23;;;1.90;;
21777;SDS011;11050;52.222;20.916;2024-03-17T14:52:04;3.30;;;2.13;;
21777;SDS011;11050;52.222;20.916;2024-03-17T14:54:30;3.27;;;1.80;;
21777;SDS011;11050;52.222;20.916;2024-03-17T14:56:56;2.97;;;1.90;;
21777;SDS011;11050;52.222;20.916;2024-03-17T14:59:22;3.53;;;2.20;;
21777;SDS011;11050;52.222;20.916;2024-03-17T15:01:48;3.77;;;2.13;;
21777;SDS011;11050;52.222;20.916;2024-03-17T15:04:14;3.00;;;2.10;;
21777;SDS011;11050;52.222;20.916;2024-03-17T15:06:41;2.87;;;2.10;;
21777;SDS011;11050;52.222;20.916;2024-03-17T15:09:09;2.83;;;1.70;;
21777;SDS011;11050;52.222;20.916;2024-03-17T15:11:37;3.07;;;2.00;;
21777;SDS011;11050;52.222;20.916;2024-03-17T15:14:02;3.70;;;2.50;;